Time;durP1;ratioP1;P1;durP2;ratioP2;P2;SDS_P1;SDS_P2;PMS_P1;PMS_P2;Temp;Humidity;BMP_temperature;BMP_pressure;BME280_temperature;BME280_humidity;BME280_pressure;Samples;Min_cycle;Max_cycle;Signal;HPM_P1;HPM_P2
2021/08/30 00:00:14;;;;;;;1.70;1.60;;;;;;;15.89;100.00;100884.50;5054622;28;20438;-64
2021/08/30 00:02:41;;;;;;;2.03;1.60;;;;;;;15.89;100.00;100884.50;5055422;28;20442;-65
2021/08/30 00:05:09;;;;;;;2.77;2.47;;;;;;;15.85;100.00;100882.75;5053526;28;20489;-65
2021/08/30 00:07:36;;;;;;;3.10;1.73;;;;;;;15.87;100.00;100885.94;5055342;28;20439;-64
2021/08/30 00:10:04;;;;;;;1.33;1.20;;;;;;;15.84;100.00;100883.84;5054370;28;20446;-65
2021/08/30 00:12:30;;;;;;;1.50;1.10;;;;;;;15.82;100.00;100880.66;5055302;28;20457;-65
2021/08/30 00:14:57;;;;;;;1.50;0.97;;;;;;;15.79;100.00;100884.03;5055129;28;20442;-64
2021/08/30 00:17:23;;;;;;;1.73;0.80;;;;;;;15.78;100.00;100888.72;5055033;28;20442;-65
2021/08/30 00:19:50;;;;;;;2.50;1.50;;;;;;;15.80;100.00;100885.63;5047784;28;20447;-65
2021/08/30 00:22:16;;;;;;;2.00;1.40;;;;;;;15.77;100.00;100889.06;5035027;28;20451;-65
2021/08/30 00:24:44;;;;;;;2.40;1.37;;;;;;;15.69;100.00;100892.63;5049378;28;20450;-66
2021/08/30 00:27:10;;;;;;;2.13;1.77;;;;;;;15.66;100.00;100890.53;5054197;28;20447;-65
2021/08/30 00:29:37;;;;;;;3.03;1.73;;;;;;;15.58;100.00;100892.97;5054040;28;20442;-65
2021/08/30 00:32:04;;;;;;;1.40;1.00;;;;;;;15.61;100.00;100889.56;5054294;28;20439;-65
2021/08/30 00:34:30;;;;;;;2.80;1.80;;;;;;;15.54;100.00;100893.94;5044020;28;20450;-65
2021/08/30 00:36:57;;;;;;;2.20;1.27;;;;;;;15.47;100.00;100893.63;5040194;28;20462;-65
2021/08/30 00:39:24;;;;;;;1.93;1.20;;;;;;;15.38;100.00;100891.72;5054431;28;20450;-65
2021/08/30 00:41:53;;;;;;;1.40;1.10;;;;;;;15.27;100.00;100890.47;5053880;28;20958;-65
2021/08/30 00:44:20;;;;;;;3.90;1.30;;;;;;;15.21;100.00;100891.75;5054951;28;20446;-66
2021/08/30 00:46:47;;;;;;;3.30;1.40;;;;;;;15.17;100.00;100895.47;5044364;28;20976;-66
2021/08/30 00:49:13;;;;;;;11.03;2.00;;;;;;;15.14;100.00;100897.72;5044118;28;20442;-66
2021/08/30 00:51:39;;;;;;;1.90;1.40;;;;;;;15.10;100.00;100896.78;5053597;28;20932;-65
2021/08/30 00:54:08;;;;;;;1.40;0.93;;;;;;;15.09;100.00;100894.34;5054521;28;20476;-65
2021/08/30 00:56:34;;;;;;;2.03;1.20;;;;;;;15.07;100.00;100902.88;5041287;28;20851;-66
2021/08/30 00:59:02;;;;;;;2.30;1.47;;;;;;;15.07;100.00;100902.88;5034145;28;20824;-66
2021/08/30 01:01:29;;;;;;;2.83;1.37;;;;;;;15.06;100.00;100908.66;5033582;28;20443;-65
2021/08/30 01:03:55;;;;;;;4.17;1.97;;;;;;;14.99;100.00;100902.88;5034291;28;20839;-65
2021/08/30 01:06:28;;;;;;;1.63;1.43;;;;;;;15.02;100.00;100905.78;5034118;28;20514;-65
2021/08/30 01:09:03;;;;;;;3.33;2.03;;;;;;;15.06;100.00;100906.72;5034303;28;20424;-66
2021/08/30 01:11:33;;;;;;;1.97;1.50;;;;;;;15.07;100.00;100911.06;5051823;28;20442;-65
2021/08/30 01:14:03;;;;;;;2.37;0.90;;;;;;;15.07;100.00;100918.44;5054066;28;20445;-65
2021/08/30 01:16:33;;;;;;;1.27;0.93;;;;;;;15.02;100.00;100915.88;5043610;28;20471;-65
2021/08/30 01:19:02;;;;;;;2.90;1.90;;;;;;;15.06;100.00;100914.13;5035026;28;20470;-66
2021/08/30 01:21:32;;;;;;;2.23;1.47;;;;;;;15.02;100.00;100916.69;5033188;28;20447;-66
2021/08/30 01:24:03;;;;;;;1.23;0.80;;;;;;;15.06;100.00;100919.56;5033990;28;20436;-65
2021/08/30 01:26:32;;;;;;;1.73;1.30;;;;;;;15.05;100.00;100926.97;5034660;28;20987;-65
2021/08/30 01:29:03;;;;;;;2.00;1.20;;;;;;;15.10;100.00;100924.06;5033857;28;20447;-66
2021/08/30 01:31:38;;;;;;;1.47;1.23;;;;;;;15.16;100.00;100921.97;5033038;28;20454;-65
2021/08/30 01:34:05;;;;;;;1.53;1.43;;;;;;;15.21;100.00;100924.50;5033973;28;20477;-66
2021/08/30 01:36:34;;;;;;;1.27;0.90;;;;;;;15.27;100.00;100919.69;5033690;28;20459;-65
2021/08/30 01:39:01;;;;;;;1.80;1.47;;;;;;;15.25;100.00;100919.22;5033474;28;20454;-65
2021/08/30 01:41:29;;;;;;;2.10;1.50;;;;;;;15.32;100.00;100923.06;5032840;28;20454;-66
2021/08/30 01:43:57;;;;;;;1.80;0.87;;;;;;;15.37;100.00;100911.16;5034667;28;20446;-67
2021/08/30 01:46:24;;;;;;;1.20;1.10;;;;;;;15.38;100.00;100913.56;5033473;28;20915;-66
2021/08/30 01:48:52;;;;;;;9.30;1.50;;;;;;;15.39;100.00;100912.44;5033832;28;20439;-66
2021/08/30 01:51:23;;;;;;;1.77;1.00;;;;;;;15.45;100.00;100915.81;5033011;28;20443;-65
2021/08/30 01:53:52;;;;;;;1.63;1.03;;;;;;;15.51;100.00;100911.75;5033530;28;20431;-64
2021/08/30 01:56:20;;;;;;;1.60;1.50;;;;;;;15.52;100.00;100915.28;5033353;28;20463;-66
2021/08/30 02:01:34;;;;;;;2.30;1.00;;;;;;;15.55;100.00;100920.09;5052428;28;20453;-66
2021/08/30 02:04:00;;;;;;;1.70;1.23;;;;;;;15.54;100.00;100918.50;5053308;28;20545;-66
2021/08/30 02:06:28;;;;;;;1.27;0.87;;;;;;;15.57;100.00;100917.84;5053194;28;20482;-66
2021/08/30 02:08:56;;;;;;;1.70;0.93;;;;;;;15.58;100.00;100916.69;5052965;28;20861;-66
2021/08/30 02:11:27;;;;;;;4.83;2.50;;;;;;;15.56;100.00;100914.31;5052046;28;20500;-66
2021/08/30 02:13:53;;;;;;;2.63;1.70;;;;;;;15.53;100.00;100914.16;5013226;28;20926;-66
2021/08/30 02:16:20;;;;;;;1.27;0.90;;;;;;;15.56;100.00;100913.50;5015419;28;20464;-67
2021/08/30 02:18:52;;;;;;;2.23;1.60;;;;;;;15.54;100.00;100919.31;5052566;28;20446;-66
2021/08/30 02:21:26;;;;;;;1.43;1.20;;;;;;;15.56;100.00;100918.97;5052300;28;20443;-67
2021/08/30 02:23:59;;;;;;;1.47;1.10;;;;;;;15.52;100.00;100916.09;5047662;28;20781;-66
2021/08/30 02:26:30;;;;;;;2.03;1.77;;;;;;;15.49;100.00;100910.47;5033048;28;20490;-66
2021/08/30 02:28:59;;;;;;;1.40;1.23;;;;;;;15.42;100.00;100912.91;5032742;28;20909;-66
2021/08/30 02:31:28;;;;;;;1.63;1.30;;;;;;;15.35;100.00;100919.66;5032805;28;20447;-67
2021/08/30 02:33:56;;;;;;;1.80;1.33;;;;;;;15.31;100.00;100913.25;5032180;28;20454;-66
2021/08/30 02:36:24;;;;;;;1.27;1.00;;;;;;;15.30;100.00;100917.09;5032703;28;20971;-66
2021/08/30 02:38:52;;;;;;;2.30;1.43;;;;;;;15.35;100.00;100924.31;5041363;28;20508;-66
2021/08/30 02:41:22;;;;;;;1.93;1.53;;;;;;;15.37;100.00;100922.88;5052110;28;20866;-66
2021/08/30 02:43:48;;;;;;;2.20;1.67;;;;;;;15.42;100.00;100923.84;5052828;28;20476;-66
2021/08/30 02:46:15;;;;;;;2.40;1.63;;;;;;;15.43;100.00;100922.72;5052379;28;20501;-66
2021/08/30 02:48:43;;;;;;;2.60;1.33;;;;;;;15.51;100.00;100924.63;5052867;28;20845;-66
2021/08/30 02:51:12;;;;;;;2.90;1.70;;;;;;;15.56;100.00;100924.44;5036906;28;20819;-65
2021/08/30 02:53:39;;;;;;;2.97;1.87;;;;;;;15.58;100.00;100922.16;5036603;28;20817;-66
2021/08/30 02:56:06;;;;;;;1.43;1.33;;;;;;;15.62;100.00;100923.91;5036549;28;20459;-66
2021/08/30 02:58:35;;;;;;;2.33;1.57;;;;;;;15.61;100.00;100921.53;5036714;28;20443;-67
2021/08/30 03:01:03;;;;;;;1.73;1.33;;;;;;;15.63;100.00;100920.09;5036672;28;20446;-66
2021/08/30 03:03:29;;;;;;;3.70;2.00;;;;;;;15.64;100.00;100921.72;5036373;28;20439;-66
2021/08/30 03:05:57;;;;;;;3.10;2.10;;;;;;;15.69;100.00;100926.19;5056206;28;20492;-66
2021/08/30 03:08:23;;;;;;;3.03;1.40;;;;;;;15.69;100.00;100920.72;5056437;28;20446;-65
2021/08/30 03:10:52;;;;;;;2.83;1.47;;;;;;;15.71;100.00;100915.72;5056444;28;20446;-67
2021/08/30 03:13:19;;;;;;;4.00;2.20;;;;;;;15.74;100.00;100925.22;5055549;28;20438;-65
2021/08/30 03:15:49;;;;;;;2.83;1.23;;;;;;;15.73;100.00;100918.94;5056189;28;20462;-66
2021/08/30 03:18:18;;;;;;;2.43;1.70;;;;;;;15.69;100.00;100926.19;5050480;28;20851;-65
2021/08/30 03:20:45;;;;;;;2.10;1.83;;;;;;;15.72;100.00;100933.72;5036059;28;20846;-66
2021/08/30 03:23:13;;;;;;;2.47;1.40;;;;;;;15.73;100.00;100929.06;5035359;28;20438;-65
2021/08/30 03:25:40;;;;;;;2.40;1.50;;;;;;;15.73;100.00;100926.34;5036169;28;20462;-66
2021/08/30 03:28:09;;;;;;;3.40;1.80;;;;;;;15.74;100.00;100928.72;5036145;28;20454;-65
2021/08/30 03:30:36;;;;;;;2.53;1.60;;;;;;;15.73;100.00;100935.34;5036128;28;20443;-65
2021/08/30 03:33:06;;;;;;;4.27;2.63;;;;;;;15.70;100.00;100929.72;5045231;28;20446;-65
2021/08/30 03:35:34;;;;;;;3.30;1.83;;;;;;;15.66;100.00;100935.03;5056235;28;20458;-65
2021/08/30 03:38:02;;;;;;;3.70;2.50;;;;;;;15.59;100.00;100940.19;5055634;28;20866;-65
2021/08/30 03:40:29;;;;;;;4.00;2.33;;;;;;;15.58;100.00;100938.53;5055911;28;20448;-65
2021/08/30 03:42:57;;;;;;;1.93;1.47;;;;;;;15.54;100.00;100940.34;5054915;28;20438;-65
2021/08/30 03:45:26;;;;;;;1.80;1.33;;;;;;;15.58;100.00;100935.81;5055409;28;20986;-65
2021/08/30 03:47:53;;;;;;;3.27;2.07;;;;;;;15.54;100.00;100937.63;5039442;28;20483;-66
2021/08/30 03:50:22;;;;;;;2.33;0.97;;;;;;;15.51;100.00;100938.25;5035857;28;20439;-66
2021/08/30 03:52:49;;;;;;;2.83;1.60;;;;;;;15.51;100.00;100941.00;5034796;28;20447;-65
2021/08/30 03:55:15;;;;;;;8.03;2.03;;;;;;;15.59;100.00;100931.97;5035474;28;20474;-66
2021/08/30 03:57:42;;;;;;;4.60;1.60;;;;;;;15.63;100.00;100941.13;5043420;28;20444;-66
2021/08/30 04:00:10;;;;;;;3.23;1.97;;;;;;;15.59;100.00;100940.97;5055447;28;20446;-66
2021/08/30 04:02:39;;;;;;;2.50;1.43;;;;;;;15.56;100.00;100938.09;5054558;28;20450;-66
2021/08/30 04:05:07;;;;;;;2.33;1.33;;;;;;;15.68;100.00;100940.97;5055278;28;20474;-66
2021/08/30 04:07:36;;;;;;;2.67;2.00;;;;;;;15.67;100.00;100941.28;5046715;28;20487;-66
2021/08/30 04:10:04;;;;;;;3.47;1.73;;;;;;;15.73;100.00;100946.25;5035709;28;20445;-66
2021/08/30 04:12:30;;;;;;;3.10;1.73;;;;;;;15.68;100.00;100945.63;5047401;28;20870;-66
2021/08/30 04:14:57;;;;;;;2.50;1.60;;;;;;;15.69;100.00;100945.31;5055161;28;20445;-67
2021/08/30 04:17:24;;;;;;;2.10;1.50;;;;;;;15.75;100.00;100949.44;5055168;28;20438;-66
2021/08/30 04:19:50;;;;;;;1.93;1.67;;;;;;;15.79;100.00;100944.94;5054755;28;20446;-66
2021/08/30 04:22:16;;;;;;;2.37;1.77;;;;;;;15.81;100.00;100947.38;5054412;28;20449;-66
2021/08/30 04:24:44;;;;;;;3.43;1.77;;;;;;;15.76;100.00;100942.88;5054931;28;20797;-66
2021/08/30 04:27:12;;;;;;;3.90;1.80;;;;;;;15.82;100.00;100949.75;5036702;28;20988;-66
2021/08/30 04:29:38;;;;;;;1.57;1.47;;;;;;;15.81;100.00;100953.63;5035111;28;20450;-66
2021/08/30 04:32:07;;;;;;;3.23;2.47;;;;;;;15.79;100.00;100955.88;5034723;28;20438;-66
2021/08/30 04:34:34;;;;;;;2.87;1.50;;;;;;;15.83;100.00;100959.53;5034252;28;20530;-66
2021/08/30 04:37:01;;;;;;;2.13;1.50;;;;;;;15.87;100.00;100946.84;5034954;28;20467;-66
2021/08/30 04:39:27;;;;;;;1.17;0.80;;;;;;;15.88;100.00;100959.34;5036537;28;20440;-66
2021/08/30 04:41:55;;;;;;;2.93;1.60;;;;;;;15.92;100.00;100948.59;5054127;28;20452;-65
2021/08/30 04:44:22;;;;;;;2.10;1.87;;;;;;;15.91;100.00;100946.19;5053964;28;20537;-67
2021/08/30 04:46:48;;;;;;;3.73;2.33;;;;;;;15.88;100.00;100948.44;5054084;28;20485;-66
2021/08/30 04:49:15;;;;;;;1.20;1.00;;;;;;;15.83;100.00;100953.28;5054570;28;20450;-66
2021/08/30 04:51:41;;;;;;;4.70;1.93;;;;;;;15.75;100.00;100943.97;5054164;28;20522;-66
2021/08/30 04:54:08;;;;;;;3.00;2.17;;;;;;;15.76;100.00;100945.63;5047701;28;20454;-66
2021/08/30 04:56:34;;;;;;;3.97;2.37;;;;;;;15.73;100.00;100940.78;5034215;28;20466;-66
2021/08/30 04:59:02;;;;;;;3.23;2.03;;;;;;;15.70;100.00;100952.38;5034330;28;20439;-67
2021/08/30 05:01:29;;;;;;;4.83;1.83;;;;;;;15.68;100.00;100954.63;5034833;28;20454;-66
2021/08/30 05:03:55;;;;;;;3.07;1.70;;;;;;;15.70;100.00;100946.91;5033692;28;20443;-66
2021/08/30 05:06:21;;;;;;;2.87;1.43;;;;;;;15.74;100.00;100958.78;5034136;28;20470;-66
2021/08/30 05:08:48;;;;;;;2.60;1.90;;;;;;;15.76;100.00;100956.53;5044082;28;20450;-66
2021/08/30 05:11:14;;;;;;;2.30;1.23;;;;;;;15.80;100.00;100956.66;5053739;28;20966;-65
2021/08/30 05:13:41;;;;;;;4.83;2.30;;;;;;;15.81;100.00;100959.09;5052773;28;20453;-67
2021/08/30 05:16:09;;;;;;;3.10;1.60;;;;;;;15.85;100.00;100954.56;5053900;28;20470;-66
2021/08/30 05:18:35;;;;;;;2.67;1.83;;;;;;;15.85;100.00;100961.97;5053634;28;20832;-66
2021/08/30 05:21:01;;;;;;;3.20;1.67;;;;;;;15.86;100.00;100964.38;5054036;28;20435;-66
2021/08/30 05:23:28;;;;;;;5.70;2.63;;;;;;;15.92;100.00;100969.66;5038520;28;20447;-66
2021/08/30 05:25:54;;;;;;;8.20;3.20;;;;;;;15.91;100.00;100966.13;5033908;28;20471;-66
2021/08/30 05:28:21;;;;;;;2.53;2.33;;;;;;;15.92;100.00;100967.72;5032354;28;20482;-66
2021/08/30 05:30:47;;;;;;;5.03;3.10;;;;;;;15.92;100.00;100969.66;5033883;28;20454;-66
2021/08/30 05:33:15;;;;;;;4.00;2.13;;;;;;;15.93;100.00;100972.03;5033120;28;20826;-66
2021/08/30 05:35:41;;;;;;;5.00;3.37;;;;;;;15.92;100.00;100966.91;5033860;28;20467;-66
2021/08/30 05:38:07;;;;;;;4.17;2.33;;;;;;;15.93;100.00;100963.84;5052678;28;20450;-66
2021/08/30 05:40:35;;;;;;;4.10;2.83;;;;;;;15.89;100.00;100971.91;5055748;28;20453;-65
2021/08/30 05:43:01;;;;;;;3.60;2.10;;;;;;;15.91;100.00;100973.50;5056035;28;20445;-64
2021/08/30 05:45:28;;;;;;;5.93;3.57;;;;;;;15.92;100.00;100969.66;5054890;28;20481;-66
2021/08/30 05:47:55;;;;;;;6.33;3.03;;;;;;;15.93;100.00;100980.22;5054532;22;20499;-71
2021/08/30 05:50:23;;;;;;;4.23;2.97;;;;;;;15.96;100.00;100976.06;5033600;28;20439;-71
2021/08/30 05:52:50;;;;;;;5.07;2.70;;;;;;;15.94;100.00;100975.56;5032747;28;20458;-71
2021/08/30 05:55:17;;;;;;;6.57;3.40;;;;;;;15.96;100.00;100973.31;5033370;28;20447;-70
2021/08/30 05:57:43;;;;;;;3.67;2.30;;;;;;;15.88;100.00;100975.75;5050972;28;20469;-71
2021/08/30 06:00:10;;;;;;;2.23;1.97;;;;;;;15.87;100.00;100974.16;5052819;28;20939;-71
2021/08/30 06:02:37;;;;;;;3.80;2.00;;;;;;;15.85;100.00;100970.97;5052462;28;20455;-70
2021/08/30 06:05:04;;;;;;;4.20;3.13;;;;;;;15.87;100.00;100976.88;5052849;28;20442;-72
2021/08/30 06:07:31;;;;;;;6.87;3.50;;;;;;;15.91;100.00;100974.31;5051791;28;21417;-72
2021/08/30 06:10:00;;;;;;;4.60;3.07;;;;;;;15.99;100.00;100968.00;5050425;28;20454;-72
2021/08/30 06:12:30;;;;;;;4.50;2.77;;;;;;;16.06;100.00;100973.75;5032418;28;20871;-72
2021/08/30 06:14:56;;;;;;;18.37;6.10;;;;;;;16.15;100.00;100965.50;5032830;28;20967;-72
2021/08/30 06:17:23;;;;;;;4.63;3.03;;;;;;;16.19;100.00;100976.59;5033182;28;20474;-71
2021/08/30 06:19:49;;;;;;;4.33;2.80;;;;;;;16.20;100.00;100976.25;5033189;28;20439;-71
2021/08/30 06:22:16;;;;;;;7.00;3.40;;;;;;;16.17;100.00;100968.75;5032326;28;20550;-72
2021/08/30 06:24:47;;;;;;;4.30;2.50;;;;;;;16.23;100.00;100978.34;5034032;28;20451;-68
2021/08/30 06:27:13;;;;;;;8.10;4.30;;;;;;;16.21;100.00;100983.34;5037006;28;20501;-69
2021/08/30 06:29:40;;;;;;;10.57;3.67;;;;;;;16.28;100.00;100985.56;5037285;28;20446;-69
2021/08/30 06:32:07;;;;;;;2.90;2.60;;;;;;;16.29;100.00;100977.03;5036659;28;20451;-69
2021/08/30 06:34:34;;;;;;;6.63;3.43;;;;;;;16.37;100.00;100976.16;5037138;28;20443;-69
2021/08/30 06:37:00;;;;;;;6.43;3.10;;;;;;;16.46;100.00;100983.53;5036958;28;20479;-70
2021/08/30 06:39:27;;;;;;;7.63;2.70;;;;;;;16.45;100.00;100988.19;5037143;28;20450;-69
2021/08/30 06:41:55;;;;;;;6.07;3.90;;;;;;;16.55;100.00;100987.00;5041633;28;20442;-70
2021/08/30 06:44:21;;;;;;;7.73;3.37;;;;;;;16.63;100.00;100986.16;5056492;28;20442;-69
2021/08/30 06:46:48;;;;;;;5.90;4.40;;;;;;;16.63;100.00;100995.16;5056632;28;20481;-69
2021/08/30 06:49:14;;;;;;;4.67;2.47;;;;;;;16.65;100.00;100990.16;5056648;28;20900;-69
2021/08/30 06:51:41;;;;;;;11.33;3.00;;;;;;;16.65;100.00;100992.09;5056448;28;20450;-70
2021/08/30 06:54:07;;;;;;;4.47;3.40;;;;;;;16.69;100.00;100987.59;5056205;28;20445;-70
2021/08/30 06:56:34;;;;;;;7.80;3.97;;;;;;;16.70;100.00;100988.38;5046585;28;20850;-69
2021/08/30 06:59:02;;;;;;;9.43;4.10;;;;;;;16.73;100.00;100993.19;5036688;28;20443;-68
2021/08/30 07:01:28;;;;;;;6.20;3.73;;;;;;;16.74;100.00;100994.81;5036762;28;20808;-70
2021/08/30 07:03:54;;;;;;;8.90;2.97;;;;;;;16.83;100.00;100992.81;5035918;28;20465;-68
2021/08/30 07:06:21;;;;;;;6.70;3.37;;;;;;;16.83;100.00;100996.34;5036600;28;20463;-69
2021/08/30 07:08:47;;;;;;;7.57;3.80;;;;;;;16.83;100.00;100993.63;5036731;28;20486;-69
2021/08/30 07:11:14;;;;;;;5.93;3.37;;;;;;;16.79;100.00;100995.41;5038392;28;20454;-70
2021/08/30 07:13:40;;;;;;;6.83;3.90;;;;;;;16.78;100.00;100993.81;5035734;28;20458;-70
2021/08/30 07:16:08;;;;;;;8.70;4.37;;;;;;;16.72;100.00;100999.78;5036311;28;20450;-68
2021/08/30 07:18:34;;;;;;;4.43;2.90;;;;;;;16.66;100.00;100999.19;5036416;28;20510;-68
2021/08/30 07:21:01;;;;;;;6.17;3.90;;;;;;;16.61;100.00;101000.16;5037253;28;20466;-68
2021/08/30 07:23:30;;;;;;;7.23;4.23;;;;;;;16.56;100.00;100996.84;5041017;28;20458;-69
2021/08/30 07:25:56;;;;;;;6.53;3.83;;;;;;;16.44;100.00;100999.47;5050867;28;20793;-68
2021/08/30 07:28:23;;;;;;;5.90;3.17;;;;;;;16.42;100.00;100998.97;5056788;28;20482;-67
2021/08/30 07:30:49;;;;;;;8.10;3.40;;;;;;;16.40;100.00;101002.84;5049810;28;20471;-70
2021/08/30 07:33:17;;;;;;;5.93;3.37;;;;;;;16.45;100.00;101003.81;5035062;28;20440;-72
2021/08/30 07:35:44;;;;;;;4.80;2.43;;;;;;;16.56;100.00;100999.56;5037639;28;20534;-76
2021/08/30 07:38:10;;;;;;;6.87;4.20;;;;;;;16.55;100.00;100998.75;5035328;28;20478;-68
2021/08/30 07:40:37;;;;;;;5.97;3.37;;;;;;;16.60;100.00;101005.94;5041886;28;20454;-72
2021/08/30 07:43:06;;;;;;;6.73;3.00;;;;;;;16.65;100.00;101012.06;5035115;28;20466;-71
2021/08/30 07:45:33;;;;;;;6.60;3.50;;;;;;;16.73;100.00;101009.59;5052753;28;20438;-73
2021/08/30 07:47:59;;;;;;;7.30;4.23;;;;;;;16.80;100.00;101012.63;5038863;28;20514;-71
2021/08/30 07:50:27;;;;;;;8.33;2.80;;;;;;;16.84;100.00;101014.38;5035571;28;20446;-69
2021/08/30 07:52:54;;;;;;;5.50;3.90;;;;;;;16.87;100.00;101021.13;5034908;28;20987;-71
2021/08/30 07:55:20;;;;;;;13.00;4.10;;;;;;;16.93;100.00;101025.25;5035659;28;20451;-72
2021/08/30 07:57:47;;;;;;;3.47;2.80;;;;;;;16.98;100.00;101033.25;5035594;28;20486;-72
2021/08/30 08:00:14;;;;;;;6.03;2.87;;;;;;;17.04;100.00;101031.91;5046289;28;20959;-72
2021/08/30 08:02:41;;;;;;;4.60;2.50;;;;;;;17.10;100.00;101038.00;5055224;28;20621;-73
2021/08/30 08:05:08;;;;;;;3.60;2.60;;;;;;;17.04;100.00;101033.84;5055340;28;20903;-73
2021/08/30 08:07:45;;;;;;;11.50;2.30;;;;;;;17.11;100.00;101042.34;5054183;28;20528;-73
2021/08/30 08:10:12;;;;;;;4.50;2.80;;;;;;;17.19;100.00;101038.75;5055098;28;20430;-72
2021/08/30 08:12:39;;;;;;;4.07;2.90;;;;;;;17.07;100.00;101033.19;5054698;28;20447;-72
2021/08/30 08:15:07;;;;;;;5.10;3.73;;;;;;;17.12;100.00;101035.72;5037867;28;20452;-73
2021/08/30 08:17:35;;;;;;;4.30;2.80;;;;;;;17.27;100.00;101035.13;5034978;28;20995;-72
2021/08/30 08:20:01;;;;;;;2.93;2.10;;;;;;;17.34;100.00;101040.84;5035350;28;20497;-72
2021/08/30 08:22:30;;;;;;;3.93;2.77;;;;;;;17.42;100.00;101035.66;5034814;28;20451;-73
2021/08/30 08:24:58;;;;;;;6.40;4.90;;;;;;;17.62;100.00;101040.31;5035195;28;20502;-73
2021/08/30 08:27:25;;;;;;;4.23;2.00;;;;;;;17.78;100.00;101038.53;5036714;28;20466;-72
2021/08/30 08:29:52;;;;;;;3.90;2.87;;;;;;;17.82;100.00;101049.63;5055227;28;20438;-72
2021/08/30 08:32:18;;;;;;;3.53;2.77;;;;;;;17.87;100.00;101041.19;5054196;28;20442;-72
2021/08/30 08:34:45;;;;;;;4.73;2.97;;;;;;;17.89;100.00;101058.13;5054444;28;20454;-71
2021/08/30 08:37:11;;;;;;;6.27;3.20;;;;;;;17.77;100.00;101053.38;5054325;28;20462;-70
2021/08/30 08:39:38;;;;;;;4.10;2.70;;;;;;;17.66;100.00;101057.66;5040376;28;20825;-72
2021/08/30 08:42:06;;;;;;;3.73;2.20;;;;;;;17.59;100.00;101062.88;5034717;28;20451;-73
2021/08/30 08:44:33;;;;;;;2.77;2.50;;;;;;;17.47;100.00;101055.41;5034748;28;20454;-72
2021/08/30 08:47:00;;;;;;;2.43;1.60;;;;;;;17.44;100.00;101063.50;5034015;28;20499;-72
2021/08/30 08:49:26;;;;;;;3.50;2.30;;;;;;;17.45;100.00;101059.63;5033163;28;21030;-72
2021/08/30 08:51:53;;;;;;;7.77;2.80;;;;;;;17.45;100.00;101062.38;5034456;28;20447;-73
2021/08/30 08:54:19;;;;;;;3.80;2.10;;;;;;;17.45;100.00;101063.19;5034278;28;20463;-72
2021/08/30 08:56:46;;;;;;;2.57;1.97;;;;;;;17.42;100.00;101063.03;5042134;28;20872;-72
2021/08/30 08:59:14;;;;;;;4.50;3.10;;;;;;;17.23;100.00;101064.31;5040911;28;20447;-72
2021/08/30 09:01:41;;;;;;;6.20;1.80;;;;;;;17.27;100.00;101058.97;5034227;28;20451;-73
2021/08/30 09:04:08;;;;;;;3.23;2.20;;;;;;;17.31;100.00;101057.97;5033960;28;20494;-73
2021/08/30 09:06:39;;;;;;;2.13;1.60;;;;;;;17.35;100.00;101053.44;5033807;28;20490;-73
2021/08/30 09:09:08;;;;;;;2.00;1.40;;;;;;;17.47;100.00;101060.09;5034520;28;20483;-73
2021/08/30 09:11:37;;;;;;;5.33;2.40;;;;;;;17.56;100.00;101056.13;5033969;28;20538;-74
2021/08/30 09:14:15;;;;;;;4.63;2.87;;;;;;;17.55;100.00;101056.47;5050808;28;20474;-73
2021/08/30 09:16:43;;;;;;;3.90;2.37;;;;;;;17.60;100.00;101053.53;5054313;28;20458;-72
2021/08/30 09:19:11;;;;;;;4.03;2.80;;;;;;;17.64;100.00;101049.78;5054291;28;20442;-72
2021/08/30 09:21:43;;;;;;;3.33;2.63;;;;;;;17.59;100.00;101058.22;5053751;28;20469;-74
2021/08/30 09:24:12;;;;;;;2.53;2.00;;;;;;;17.62;100.00;101056.75;5053717;28;20981;-73
2021/08/30 09:26:47;;;;;;;4.00;3.00;;;;;;;17.54;100.00;101055.69;5037651;28;20475;-73
2021/08/30 09:29:20;;;;;;;2.70;1.40;;;;;;;17.56;100.00;101047.13;5033977;28;20485;-72
2021/08/30 09:32:11;;;;;;;3.47;1.90;;;;;;;17.66;100.00;101052.16;5034043;28;20461;-73
2021/08/30 09:34:40;;;;;;;4.03;2.30;;;;;;;17.63;100.00;101052.84;5014277;28;20451;-73
2021/08/30 09:37:17;;;;;;;3.87;2.40;;;;;;;17.56;100.00;101047.91;5035354;28;20462;-73
2021/08/30 09:39:48;;;;;;;2.57;1.73;;;;;;;17.57;100.00;101049.50;5014093;28;20837;-72
2021/08/30 09:42:15;;;;;;;3.27;2.23;;;;;;;17.68;100.00;101044.44;5023503;28;20466;-74
2021/08/30 09:44:43;;;;;;;2.87;1.80;;;;;;;17.62;100.00;101049.31;5041803;28;20454;-72
2021/08/30 09:47:11;;;;;;;4.23;2.53;;;;;;;17.64;100.00;101046.22;5040225;28;20990;-73
2021/08/30 09:49:38;;;;;;;10.90;2.53;;;;;;;17.65;100.00;101050.56;5030318;28;20487;-72
2021/08/30 09:52:05;;;;;;;4.77;2.43;;;;;;;17.61;100.00;101044.16;5032704;28;20443;-73
2021/08/30 09:54:32;;;;;;;11.03;3.47;;;;;;;17.59;100.00;101049.19;5033447;28;20458;-72
2021/08/30 09:56:59;;;;;;;3.87;2.40;;;;;;;17.50;100.00;101048.47;5033817;28;20533;-73
2021/08/30 09:59:26;;;;;;;4.53;2.63;;;;;;;17.37;100.00;101051.16;5037932;28;20439;-73
2021/08/30 10:02:04;;;;;;;2.20;1.90;;;;;;;17.36;100.00;101049.56;5033973;28;20446;-73
2021/08/30 10:04:31;;;;;;;3.73;2.53;;;;;;;17.44;100.00;101053.34;5034042;28;20493;-72
2021/08/30 10:06:57;;;;;;;3.30;2.50;;;;;;;17.37;100.00;101051.16;5034074;28;20467;-73
2021/08/30 10:09:26;;;;;;;2.47;1.90;;;;;;;17.40;100.00;101050.50;5052881;28;20489;-72
2021/08/30 10:11:54;;;;;;;3.27;2.03;;;;;;;17.35;100.00;101052.59;5053792;28;20442;-75
2021/08/30 10:14:23;;;;;;;3.27;2.10;;;;;;;17.33;100.00;101046.69;5053046;28;20446;-73
2021/08/30 10:16:50;;;;;;;4.47;2.20;;;;;;;17.28;100.00;101046.88;5051598;28;20470;-73
2021/08/30 10:19:27;;;;;;;2.40;1.87;;;;;;;17.35;100.00;101052.59;5038607;28;20459;-73
2021/08/30 10:21:55;;;;;;;4.80;1.73;;;;;;;17.43;100.00;101051.75;5031815;28;20459;-73
2021/08/30 10:24:21;;;;;;;4.30;2.23;;;;;;;17.50;100.00;101043.00;5031868;28;20443;-75
2021/08/30 10:26:49;;;;;;;3.17;2.03;;;;;;;17.62;100.00;101043.84;5037119;28;20493;-75
2021/08/30 10:29:17;;;;;;;3.27;2.37;;;;;;;17.76;100.00;101042.78;5032936;28;20494;-71
2021/08/30 10:31:48;;;;;;;4.63;2.60;;;;;;;17.78;100.00;101046.75;5032710;28;20439;-71
2021/08/30 10:34:24;;;;;;;2.93;1.70;;;;;;;17.85;100.00;101044.28;5033288;28;20945;-69
2021/08/30 10:36:52;;;;;;;2.30;2.00;;;;;;;17.95;100.00;101044.97;5033019;28;20482;-71
2021/08/30 10:39:18;;;;;;;1.70;1.60;;;;;;;18.01;100.00;101046.34;5033035;28;20451;-70
2021/08/30 10:41:46;;;;;;;3.07;1.80;;;;;;;18.00;100.00;101042.81;5032831;28;20466;-72
2021/08/30 10:44:14;;;;;;;2.97;2.03;;;;;;;18.02;100.00;101045.22;5032513;28;20470;-70
2021/08/30 10:46:43;;;;;;;1.50;1.40;;;;;;;17.93;100.00;101050.81;5032768;28;20494;-70
2021/08/30 10:49:16;;;;;;;3.77;2.20;;;;;;;17.75;100.00;101049.38;5032981;28;20558;-70
2021/08/30 10:51:43;;;;;;;5.47;2.70;;;;;;;17.71;100.00;101045.66;5044739;28;20446;-71
2021/08/30 10:54:13;;;;;;;2.40;1.70;;;;;;;17.66;100.00;101049.44;5052234;28;20576;-70
2021/08/30 10:56:41;;;;;;;2.60;2.00;;;;;;;17.65;100.00;101053.31;5052703;28;20458;-70
2021/08/30 10:59:09;;;;;;;1.43;1.33;;;;;;;17.65;100.00;101053.31;5052716;28;20452;-70
2021/08/30 11:01:38;;;;;;;2.57;1.93;;;;;;;17.66;100.00;101046.69;5052534;28;20442;-68
2021/08/30 11:04:06;;;;;;;2.20;1.57;;;;;;;17.68;100.00;101041.69;5051761;28;20980;-67
2021/08/30 11:06:37;;;;;;;2.97;1.70;;;;;;;17.75;100.00;101047.47;5036969;28;20831;-67
2021/08/30 11:09:03;;;;;;;2.10;1.80;;;;;;;17.67;100.00;101042.81;5032466;28;20565;-68
2021/08/30 11:11:32;;;;;;;5.10;1.83;;;;;;;17.72;100.00;101050.84;5032582;28;20818;-68
2021/08/30 11:14:02;;;;;;;2.30;2.07;;;;;;;17.70;100.00;101033.91;5035781;28;20814;-68
2021/08/30 11:16:29;;;;;;;2.07;1.57;;;;;;;17.64;100.00;101038.81;5048764;28;20464;-68
2021/08/30 11:18:59;;;;;;;4.30;2.27;;;;;;;17.78;100.00;101041.28;5056307;28;20529;-69
2021/08/30 11:21:37;;;;;;;8.80;1.83;;;;;;;17.95;100.00;101050.47;5056125;28;20434;-70